Flight Track Log - Related Links

Times and Time Zones

All times are in EDT time to prevent confusion due to time zone crossing. See the CTL22 flight status page for this flight to view local times or setup timezone preferences in your user account.

Time Position Orientation Groundspeed Altitude Reporting Facility
EDT Latitude Longitude Course Direction KTS MPH feet Rate Location/Type
Fri 08:12:14 PM 42.7831 -85.5253 180° South 134 154 3,200  Level Chicago Center
Fri 08:13:16 PM 42.7403 -85.5072 163° South 154 177 3,200 -97 Level Chicago Center
Fri 08:14:18 PM 42.6994 -85.4997 172° South 151 174 3,000 -97 Descending Chicago Center
Fri 08:15:20 PM 42.6639 -85.5022 183° South 133 153 3,000 48 Level Chicago Center
Fri 08:16:00 PM 42.6268 -85.5342 182° South  Level Estimated
Fri 08:16:22 PM 42.6278 -85.4986 176° South 132 152 3,100  Level Chicago Center
Fri 08:17:00 PM 42.5844 -85.5338 180° South  Level FlightAware Approximate
Fri 08:17:23 PM 42.5931 -85.5050 188° South 128 147 3,100  Level Chicago Center
Fri 08:18:25 PM 42.5533 -85.5147 190° South 122 140 3,000 48 Descending Chicago Center
Fri 08:19:27 PM 42.5214 -85.5267 195° South 119 137 3,200 48 Climbing Chicago Center
Fri 08:20:29 PM 42.4931 -85.5458 207° Southwest 115 132 3,100 -194 Descending Chicago Center
Fri 08:21:31 PM 42.4569 -85.5486 183° South 127 146 2,800 -242 Descending Chicago Center
Fri 08:22:33 PM 42.4169 -85.5469 178° South 140 161 2,600 -195 Descending Chicago Center
Fri 08:23:34 PM 42.3817 -85.5644 200° South 141 162 2,400 49 Descending Chicago Center
Fri 08:24:36 PM 42.3444 -85.5581 173° South 136 157 2,700 -97 Climbing Chicago Center
Fri 08:25:38 PM 42.3078 -85.5558 177° South 113 130 2,200 -435 Descending Chicago Center
Fri 08:26:40 PM 42.2786 -85.5567 181° South 107 123 1,800 -387 Descending Chicago Center
Fri 08:28:00 PM 42.2333 -85.5500 180° South  Level FlightAware Approximate
Fri 08:35:00 PM 42.2344 -85.5516 180° South  Level Estimated
Fri 08:36:00 PM 42.2333 -85.5500 180° South  Level FlightAware Approximate

Login

Don't have an account? Register now (free) for customized features, flight alerts, and more!